createdAt,value
2023-02-19T00:02:05.157Z,5.40
2023-02-19T00:04:36.916Z,4.47
2023-02-19T00:07:08.731Z,4.57
2023-02-19T00:09:40.532Z,4.20
2023-02-19T00:12:12.452Z,4.17
2023-02-19T00:14:44.270Z,4.93
2023-02-19T00:17:15.987Z,4.23
2023-02-19T00:19:47.751Z,4.00
2023-02-19T00:22:19.438Z,3.80
2023-02-19T00:24:51.217Z,4.10
2023-02-19T00:27:22.894Z,3.95
2023-02-19T00:29:54.584Z,3.73
2023-02-19T00:32:26.496Z,3.50
2023-02-19T00:34:58.218Z,3.50
2023-02-19T00:37:30.149Z,4.43
2023-02-19T00:40:01.851Z,3.80
2023-02-19T00:42:33.632Z,3.33
2023-02-19T00:45:05.902Z,3.77
2023-02-19T00:47:37.645Z,3.63
2023-02-19T00:50:09.707Z,3.80
2023-02-19T00:52:41.545Z,3.13
2023-02-19T00:55:13.312Z,3.40
2023-02-19T00:57:45.007Z,3.00
2023-02-19T01:00:16.750Z,3.00
2023-02-19T01:02:48.468Z,4.07
2023-02-19T01:05:20.173Z,3.50
2023-02-19T01:07:51.860Z,3.23
2023-02-19T01:10:32.344Z,3.27
2023-02-19T01:13:04.162Z,3.40
2023-02-19T01:15:35.962Z,3.23
2023-02-19T01:18:08.418Z,3.50
2023-02-19T01:20:44.527Z,3.93
2023-02-19T01:23:16.433Z,3.50
2023-02-19T01:25:48.469Z,3.83
2023-02-19T01:28:20.248Z,3.80
2023-02-19T01:30:52.044Z,3.90
2023-02-19T01:33:23.707Z,3.90
2023-02-19T01:35:55.613Z,4.47
2023-02-19T01:38:27.993Z,4.13
2023-02-19T01:41:05.534Z,3.80
2023-02-19T01:43:57.424Z,3.93
2023-02-19T01:46:40.556Z,3.67
2023-02-19T01:49:23.107Z,4.47
2023-02-19T01:51:59.242Z,4.07
2023-02-19T01:54:34.599Z,3.40
2023-02-19T01:57:11.449Z,3.97
2023-02-19T01:59:43.736Z,4.37
2023-02-19T02:02:15.674Z,4.53
2023-02-19T02:04:48.262Z,4.30
2023-02-19T02:07:39.038Z,3.90
2023-02-19T02:10:21.066Z,4.90
2023-02-19T02:12:57.611Z,4.90
2023-02-19T02:15:37.923Z,4.30
2023-02-19T02:18:37.866Z,4.37
2023-02-19T02:21:47.005Z,4.70
2023-02-19T02:24:56.140Z,4.60
2023-02-19T02:27:38.526Z,4.60
2023-02-19T02:30:16.007Z,4.67
2023-02-19T02:33:06.976Z,5.23
2023-02-19T02:36:05.979Z,5.80
2023-02-19T02:38:42.046Z,5.70
2023-02-19T02:41:15.449Z,4.33
2023-02-19T02:43:47.156Z,5.10
2023-02-19T02:46:24.541Z,5.00
2023-02-19T02:48:58.400Z,4.10
2023-02-19T02:51:35.195Z,5.03
2023-02-19T02:54:33.035Z,4.80
2023-02-19T02:57:06.877Z,5.00
2023-02-19T02:59:40.271Z,4.90
2023-02-19T03:02:32.527Z,5.23
2023-02-19T03:05:32.168Z,4.83
2023-02-19T03:08:07.495Z,5.20
2023-02-19T03:10:47.796Z,5.17
2023-02-19T03:13:49.457Z,4.90
2023-02-19T03:16:46.916Z,4.60
2023-02-19T03:19:22.114Z,5.17
2023-02-19T03:22:16.598Z,4.73
2023-02-19T03:25:20.977Z,4.20
2023-02-19T03:27:54.389Z,4.23
2023-02-19T03:30:35.455Z,4.47
2023-02-19T03:33:16.930Z,5.00
2023-02-19T03:35:58.076Z,4.60
2023-02-19T03:38:57.842Z,5.00
2023-02-19T03:42:04.183Z,4.50
2023-02-19T03:44:55.951Z,4.40
2023-02-19T03:47:32.527Z,4.70
2023-02-19T03:50:17.369Z,4.30
2023-02-19T03:52:58.003Z,4.03
2023-02-19T03:55:53.130Z,3.10
2023-02-19T03:58:28.497Z,3.83
2023-02-19T04:01:13.743Z,3.57
2023-02-19T04:04:15.091Z,2.83
2023-02-19T04:06:57.004Z,2.20
2023-02-19T04:09:38.260Z,2.53
2023-02-19T04:12:12.432Z,2.20
2023-02-19T04:15:06.493Z,2.10
2023-02-19T04:17:45.969Z,2.10
2023-02-19T04:20:20.021Z,1.90
2023-02-19T04:22:52.169Z,1.77
2023-02-19T04:25:26.649Z,1.90
2023-02-19T04:27:58.806Z,2.00
2023-02-19T04:30:30.607Z,1.73
2023-02-19T04:33:02.384Z,1.70
2023-02-19T04:35:34.104Z,2.03
2023-02-19T04:38:05.928Z,2.50
2023-02-19T04:40:37.650Z,1.13
2023-02-19T04:43:09.380Z,1.50
2023-02-19T04:45:41.171Z,1.40
2023-02-19T04:48:13.030Z,1.20
2023-02-19T04:50:44.732Z,1.30
2023-02-19T04:53:16.591Z,1.23
2023-02-19T04:55:48.521Z,1.10
2023-02-19T04:58:21.207Z,1.17
2023-02-19T05:00:53.408Z,1.00
2023-02-19T05:03:25.091Z,1.23
2023-02-19T05:05:56.786Z,1.03
2023-02-19T05:08:28.444Z,1.07
2023-02-19T05:11:01.242Z,1.30
2023-02-19T05:13:33.613Z,1.00
2023-02-19T05:16:08.532Z,1.10
2023-02-19T05:18:41.331Z,1.00
2023-02-19T05:21:13.981Z,0.70
2023-02-19T05:23:45.712Z,1.10
2023-02-19T05:26:20.669Z,1.00
2023-02-19T05:28:54.560Z,1.00
2023-02-19T05:31:26.517Z,0.80
2023-02-19T05:33:58.200Z,0.90
2023-02-19T05:36:30.104Z,1.10
2023-02-19T05:39:01.860Z,1.00
2023-02-19T05:41:33.614Z,1.23
2023-02-19T05:44:05.420Z,0.90
2023-02-19T05:46:37.206Z,1.00
2023-02-19T05:49:08.939Z,1.10
2023-02-19T05:51:40.640Z,1.00
2023-02-19T05:54:12.612Z,0.80
2023-02-19T05:56:44.320Z,0.77
2023-02-19T05:59:17.794Z,0.90
2023-02-19T06:01:51.225Z,1.03
2023-02-19T06:04:23.515Z,0.70
2023-02-19T06:06:55.427Z,0.80
2023-02-19T06:09:27.292Z,0.70
2023-02-19T06:11:59.065Z,0.80
2023-02-19T06:14:30.866Z,0.80
2023-02-19T06:17:02.553Z,1.00
2023-02-19T06:19:34.419Z,0.87
2023-02-19T06:22:06.250Z,0.80
2023-02-19T06:24:38.054Z,0.70
2023-02-19T06:27:10.061Z,0.70
2023-02-19T06:29:41.743Z,0.80
2023-02-19T06:32:13.589Z,1.10
2023-02-19T06:34:45.495Z,0.90
2023-02-19T06:37:17.153Z,0.80
2023-02-19T06:39:49.028Z,0.80
2023-02-19T06:42:20.766Z,0.80
2023-02-19T06:44:52.529Z,1.00
2023-02-19T06:47:25.549Z,1.10
2023-02-19T06:49:57.308Z,0.70
2023-02-19T06:52:29.049Z,0.80
2023-02-19T06:55:00.887Z,0.90
2023-02-19T06:57:32.600Z,0.90
2023-02-19T07:00:04.679Z,1.00
2023-02-19T07:02:36.389Z,1.00
2023-02-19T07:05:08.268Z,1.17
2023-02-19T07:07:40.101Z,1.20
2023-02-19T07:10:11.891Z,1.10
2023-02-19T07:12:43.702Z,1.17
2023-02-19T07:15:15.414Z,1.03
2023-02-19T07:17:47.177Z,0.80
2023-02-19T07:20:18.968Z,1.03
2023-02-19T07:22:50.717Z,1.10
2023-02-19T07:25:22.461Z,1.00
2023-02-19T07:27:54.172Z,1.00
2023-02-19T07:30:26.003Z,1.07
2023-02-19T07:32:57.806Z,1.20
2023-02-19T07:35:29.493Z,1.50
2023-02-19T07:38:01.280Z,1.30
2023-02-19T07:40:34.396Z,1.20
2023-02-19T07:43:06.105Z,1.40
2023-02-19T07:45:37.766Z,1.80
2023-02-19T07:48:09.516Z,1.60
2023-02-19T07:50:41.597Z,1.87
2023-02-19T07:53:13.277Z,1.60
2023-02-19T07:55:45.162Z,1.63
2023-02-19T07:58:17.459Z,2.00
2023-02-19T08:00:49.189Z,3.60
2023-02-19T08:03:21.051Z,1.80
2023-02-19T08:05:53.851Z,1.87
2023-02-19T08:08:25.729Z,1.67
2023-02-19T08:11:19.535Z,1.83
2023-02-19T08:13:52.296Z,1.87
2023-02-19T08:16:40.875Z,1.87
2023-02-19T08:19:14.177Z,1.80
2023-02-19T08:21:46.251Z,1.33
2023-02-19T08:24:18.041Z,1.90
2023-02-19T08:26:50.086Z,1.63
2023-02-19T08:29:21.795Z,1.60
2023-02-19T08:31:53.656Z,2.00
2023-02-19T08:34:25.758Z,1.70
2023-02-19T08:36:57.545Z,1.87
2023-02-19T08:39:29.203Z,1.30
2023-02-19T08:42:00.925Z,1.50
2023-02-19T08:44:33.125Z,2.17
2023-02-19T08:47:05.670Z,1.90
2023-02-19T08:49:37.345Z,2.00
2023-02-19T08:52:09.113Z,1.63
2023-02-19T08:54:40.877Z,1.50
2023-02-19T08:57:12.827Z,1.87
2023-02-19T08:59:44.552Z,3.50
2023-02-19T09:02:16.923Z,3.17
2023-02-19T09:04:48.687Z,3.30
2023-02-19T09:07:20.459Z,3.20
2023-02-19T09:09:52.283Z,2.00
2023-02-19T09:12:24.548Z,5.30
2023-02-19T09:14:56.405Z,1.80
2023-02-19T09:17:28.241Z,2.00
2023-02-19T09:19:59.964Z,2.10
2023-02-19T09:22:31.664Z,1.73
2023-02-19T09:25:03.463Z,1.83
2023-02-19T09:27:35.363Z,1.87
2023-02-19T09:30:07.775Z,1.47
2023-02-19T09:32:39.612Z,1.60
2023-02-19T09:35:11.332Z,1.70
2023-02-19T09:37:43.093Z,2.07
2023-02-19T09:40:21.258Z,1.60
2023-02-19T09:42:53.157Z,2.30
2023-02-19T09:45:26.820Z,1.77
2023-02-19T09:47:58.854Z,2.10
2023-02-19T09:50:38.322Z,1.90
2023-02-19T09:53:21.148Z,2.17
2023-02-19T09:55:53.574Z,1.57
2023-02-19T09:58:30.634Z,1.90
2023-02-19T10:01:04.997Z,1.40
2023-02-19T10:03:43.706Z,1.50
2023-02-19T10:06:23.944Z,2.03
2023-02-19T10:09:20.271Z,1.60
2023-02-19T10:11:54.409Z,1.80
2023-02-19T10:14:39.594Z,2.03
2023-02-19T10:17:25.537Z,1.60
2023-02-19T10:19:58.179Z,2.10
2023-02-19T10:22:35.796Z,1.87
2023-02-19T10:25:07.997Z,1.70
2023-02-19T10:27:39.836Z,1.50
2023-02-19T10:30:22.678Z,2.00
2023-02-19T10:33:02.527Z,2.20
2023-02-19T10:35:37.557Z,2.30
2023-02-19T10:38:17.601Z,2.50
2023-02-19T10:40:57.895Z,2.20
2023-02-19T10:43:33.921Z,1.67
2023-02-19T10:46:33.130Z,1.47
2023-02-19T10:49:16.793Z,1.20
2023-02-19T10:51:49.252Z,1.67
2023-02-19T10:54:32.722Z,2.10
2023-02-19T10:57:19.611Z,1.67
2023-02-19T11:00:16.957Z,1.70
2023-02-19T11:02:49.046Z,1.40
2023-02-19T11:05:21.270Z,1.83
2023-02-19T11:07:56.516Z,1.53
2023-02-19T11:10:39.797Z,1.63
2023-02-19T11:13:26.798Z,2.30
2023-02-19T11:15:59.777Z,1.77
2023-02-19T11:18:32.880Z,2.13
2023-02-19T11:21:07.155Z,1.57
2023-02-19T11:23:46.023Z,1.50
2023-02-19T11:26:27.296Z,1.83
2023-02-19T11:29:17.216Z,1.50
2023-02-19T11:31:49.331Z,1.40
2023-02-19T11:34:30.037Z,1.30
2023-02-19T11:37:28.088Z,1.50
2023-02-19T11:39:59.790Z,1.53
2023-02-19T11:42:42.655Z,2.43
2023-02-19T11:45:14.352Z,1.50
2023-02-19T11:48:06.300Z,1.47
2023-02-19T11:50:52.754Z,1.90
2023-02-19T11:53:32.064Z,1.67
2023-02-19T11:56:18.160Z,1.37
2023-02-19T11:59:12.795Z,1.60
2023-02-19T12:01:59.835Z,2.30
2023-02-19T12:05:03.079Z,1.67
2023-02-19T12:08:00.834Z,1.20
2023-02-19T12:11:03.345Z,2.03
2023-02-19T12:13:49.037Z,2.30
2023-02-19T12:16:20.896Z,1.20
2023-02-19T12:19:39.190Z,1.50
2023-02-19T12:22:26.508Z,2.23
2023-02-19T12:25:32.204Z,1.50
2023-02-19T12:28:17.278Z,1.57
2023-02-19T12:31:16.644Z,1.50
2023-02-19T12:34:18.812Z,1.87
2023-02-19T12:36:59.312Z,1.57
2023-02-19T12:39:47.737Z,1.57
2023-02-19T12:42:47.205Z,1.40
2023-02-19T12:45:33.183Z,1.70
2023-02-19T12:48:25.812Z,1.93
2023-02-19T12:51:08.069Z,1.70
2023-02-19T12:53:51.747Z,1.70
2023-02-19T12:56:40.627Z,1.40
2023-02-19T12:59:22.749Z,1.30
2023-02-19T13:02:15.050Z,1.30
2023-02-19T13:04:52.944Z,1.57
2023-02-19T13:07:56.356Z,1.10
2023-02-19T13:10:36.793Z,1.20
2023-02-19T13:13:34.270Z,1.30
2023-02-19T13:16:15.112Z,1.27
2023-02-19T13:19:00.480Z,1.50
2023-02-19T13:21:54.511Z,1.60
2023-02-19T13:24:33.841Z,1.57
2023-02-19T13:27:08.560Z,1.93
2023-02-19T13:29:54.151Z,1.60
2023-02-19T13:33:03.005Z,2.00
2023-02-19T13:36:08.979Z,1.80
2023-02-19T13:38:44.828Z,1.93
2023-02-19T13:42:02.953Z,1.83
2023-02-19T13:44:35.515Z,2.00
2023-02-19T13:47:46.118Z,1.80
2023-02-19T13:50:29.741Z,1.90
2023-02-19T13:53:22.238Z,1.30
2023-02-19T13:55:54.103Z,1.40
2023-02-19T13:58:56.731Z,1.80
2023-02-19T14:02:00.915Z,1.53
2023-02-19T14:04:32.583Z,1.90
2023-02-19T14:07:04.281Z,1.27
2023-02-19T14:09:41.567Z,1.97
2023-02-19T14:12:15.606Z,1.83
2023-02-19T14:14:47.713Z,1.80
2023-02-19T14:17:39.649Z,1.50
2023-02-19T14:20:17.424Z,2.00
2023-02-19T14:23:01.496Z,1.80
2023-02-19T14:25:52.786Z,2.10
2023-02-19T14:28:46.498Z,1.83
2023-02-19T14:31:29.336Z,2.03
2023-02-19T14:34:05.079Z,2.90
2023-02-19T14:36:45.161Z,1.80
2023-02-19T14:39:21.728Z,2.00
2023-02-19T14:42:00.475Z,2.23
2023-02-19T14:44:40.184Z,2.30
2023-02-19T14:47:16.700Z,1.80
2023-02-19T14:49:50.213Z,1.70
2023-02-19T14:52:40.160Z,1.70
2023-02-19T14:55:35.050Z,1.87
2023-02-19T14:58:14.919Z,2.03
2023-02-19T15:00:46.753Z,2.27
2023-02-19T15:03:33.809Z,2.00
2023-02-19T15:06:11.822Z,1.90
2023-02-19T15:08:48.431Z,2.40
2023-02-19T15:11:23.518Z,2.57
2023-02-19T15:14:04.875Z,2.47
2023-02-19T15:16:37.261Z,1.97
2023-02-19T15:19:10.276Z,1.90
2023-02-19T15:21:47.527Z,1.90
2023-02-19T15:24:19.541Z,1.87
2023-02-19T15:26:54.229Z,2.07
2023-02-19T15:29:27.619Z,1.87
2023-02-19T15:32:01.325Z,2.30
2023-02-19T15:34:33.343Z,2.03
2023-02-19T15:37:08.439Z,1.67
2023-02-19T15:39:43.962Z,2.30
2023-02-19T15:42:21.234Z,2.10
2023-02-19T15:45:16.044Z,2.50
2023-02-19T15:48:03.928Z,2.27
2023-02-19T15:50:40.205Z,2.00
2023-02-19T15:53:19.304Z,2.30
2023-02-19T15:56:06.142Z,2.40
2023-02-19T15:58:54.764Z,2.20
2023-02-19T16:01:32.644Z,2.07
2023-02-19T16:04:11.939Z,2.20
2023-02-19T16:06:54.306Z,2.40
2023-02-19T16:09:30.938Z,2.40
2023-02-19T16:12:04.576Z,2.70
2023-02-19T16:14:37.524Z,2.40
2023-02-19T16:17:16.686Z,2.60
2023-02-19T16:19:48.434Z,3.40
2023-02-19T16:22:24.308Z,2.40
2023-02-19T16:25:04.940Z,3.23
2023-02-19T16:27:41.642Z,3.60
2023-02-19T16:30:16.372Z,2.80
2023-02-19T16:32:48.124Z,3.40
2023-02-19T16:35:42.581Z,3.07
2023-02-19T16:38:18.683Z,2.63
2023-02-19T16:40:50.885Z,2.83
2023-02-19T16:43:38.133Z,3.00
2023-02-19T16:46:12.631Z,3.23
2023-02-19T16:48:44.469Z,3.90
2023-02-19T16:51:27.150Z,4.60
2023-02-19T16:53:58.973Z,8.40
2023-02-19T16:56:31.059Z,6.43
2023-02-19T16:59:03.495Z,4.90
2023-02-19T17:01:37.063Z,5.70
2023-02-19T17:04:12.650Z,7.73
2023-02-19T17:06:45.553Z,5.20
2023-02-19T17:09:17.273Z,4.53
2023-02-19T17:11:48.959Z,4.10
2023-02-19T17:14:20.760Z,3.97
2023-02-19T17:16:52.431Z,3.60
2023-02-19T17:19:24.182Z,4.30
2023-02-19T17:21:56.084Z,6.33
2023-02-19T17:24:27.894Z,4.83
2023-02-19T17:26:59.741Z,4.43
2023-02-19T17:29:33.935Z,4.27
2023-02-19T17:32:05.897Z,4.23
2023-02-19T17:34:37.686Z,3.80
2023-02-19T17:37:09.480Z,4.03
2023-02-19T17:39:41.327Z,3.33
2023-02-19T17:42:13.091Z,3.20
2023-02-19T17:44:46.723Z,3.00
2023-02-19T17:47:18.673Z,3.57
2023-02-19T17:49:50.721Z,2.90
2023-02-19T17:52:22.413Z,3.10
2023-02-19T17:54:54.130Z,3.20
2023-02-19T17:57:26.952Z,3.37
2023-02-19T17:59:58.693Z,2.80
2023-02-19T18:02:30.666Z,3.17
2023-02-19T18:05:02.351Z,3.00
2023-02-19T18:07:34.107Z,2.87
2023-02-19T18:10:06.860Z,4.00
2023-02-19T18:12:39.024Z,3.50
2023-02-19T18:15:26.763Z,2.97
2023-02-19T18:17:58.987Z,3.13
2023-02-19T18:20:31.826Z,3.33
2023-02-19T18:23:04.264Z,3.23
2023-02-19T18:25:35.949Z,3.20
2023-02-19T18:28:07.763Z,3.67
2023-02-19T18:30:39.499Z,3.80
2023-02-19T18:33:13.195Z,3.60
2023-02-19T18:35:47.418Z,3.40
2023-02-19T18:38:19.276Z,3.20
2023-02-19T18:40:51.105Z,4.00
2023-02-19T18:43:22.856Z,4.73
2023-02-19T18:45:54.654Z,5.80
2023-02-19T18:48:26.385Z,4.23
2023-02-19T18:50:58.061Z,3.20
2023-02-19T18:53:31.321Z,3.93
2023-02-19T18:56:05.290Z,3.73
2023-02-19T18:58:36.953Z,2.90
2023-02-19T19:01:09.277Z,3.60
2023-02-19T19:03:41.063Z,3.03
2023-02-19T19:06:12.853Z,3.63
2023-02-19T19:08:44.649Z,4.07
2023-02-19T19:11:16.472Z,4.20
2023-02-19T19:13:48.592Z,3.97
2023-02-19T19:16:28.397Z,3.60
2023-02-19T19:19:00.177Z,3.43
2023-02-19T19:21:31.866Z,3.13
2023-02-19T19:24:04.194Z,3.43
2023-02-19T19:26:35.976Z,3.63
2023-02-19T19:29:08.314Z,3.23
2023-02-19T19:31:40.218Z,3.60
2023-02-19T19:34:12.872Z,3.70
2023-02-19T19:36:45.467Z,4.17
2023-02-19T19:39:17.197Z,3.90
2023-02-19T19:41:54.741Z,5.17
2023-02-19T19:44:26.633Z,5.70
2023-02-19T19:46:58.316Z,3.47
2023-02-19T19:49:30.098Z,4.40
2023-02-19T19:52:01.902Z,4.27
2023-02-19T19:54:34.133Z,3.70
2023-02-19T19:57:05.948Z,3.87
2023-02-19T19:59:39.315Z,3.37
2023-02-19T20:02:12.144Z,3.70
2023-02-19T20:04:43.889Z,4.70
2023-02-19T20:07:16.099Z,4.27
2023-02-19T20:09:49.403Z,4.30
2023-02-19T20:12:21.173Z,5.47
2023-02-19T20:14:52.997Z,5.00
2023-02-19T20:17:28.867Z,8.23
2023-02-19T20:20:00.677Z,4.50
2023-02-19T20:22:32.430Z,4.90
2023-02-19T20:25:04.258Z,3.63
2023-02-19T20:27:35.992Z,5.17
2023-02-19T20:30:11.262Z,5.60
2023-02-19T20:32:43.522Z,4.80
2023-02-19T20:35:16.796Z,5.47
2023-02-19T20:37:49.433Z,5.30
2023-02-19T20:40:24.080Z,4.03
2023-02-19T20:42:56.018Z,4.13
2023-02-19T20:45:28.480Z,3.57
2023-02-19T20:48:00.336Z,4.37
2023-02-19T20:50:32.022Z,4.10
2023-02-19T20:53:03.786Z,4.90
2023-02-19T20:55:35.734Z,4.23
2023-02-19T20:58:07.499Z,6.00
2023-02-19T21:00:39.246Z,6.03
2023-02-19T21:03:11.728Z,4.70
2023-02-19T21:05:43.622Z,5.37
2023-02-19T21:08:17.225Z,4.70
2023-02-19T21:10:48.921Z,6.00
2023-02-19T21:13:20.703Z,4.90
2023-02-19T21:15:52.431Z,5.13
2023-02-19T21:18:24.272Z,5.77
2023-02-19T21:20:55.964Z,4.83
2023-02-19T21:23:27.765Z,5.80
2023-02-19T21:26:02.311Z,4.97
2023-02-19T21:28:34.012Z,4.80
2023-02-19T21:31:05.866Z,5.27
2023-02-19T21:33:37.553Z,5.60
2023-02-19T21:36:09.871Z,4.70
2023-02-19T21:38:41.914Z,5.30
2023-02-19T21:41:13.677Z,4.50
2023-02-19T21:43:45.401Z,4.77
2023-02-19T21:46:20.654Z,5.23
2023-02-19T21:48:54.045Z,5.00
2023-02-19T21:51:31.518Z,5.43
2023-02-19T21:54:04.834Z,4.80
2023-02-19T21:56:36.933Z,5.43
2023-02-19T21:59:08.934Z,4.50
2023-02-19T22:01:42.039Z,5.00
2023-02-19T22:04:16.279Z,4.87
2023-02-19T22:06:48.082Z,4.70
2023-02-19T22:09:20.239Z,5.40
2023-02-19T22:11:52.005Z,5.67
2023-02-19T22:14:23.778Z,5.37
2023-02-19T22:16:55.509Z,5.70
2023-02-19T22:19:27.224Z,5.23
2023-02-19T22:21:58.919Z,5.20
2023-02-19T22:24:30.621Z,6.37
2023-02-19T22:27:02.460Z,5.80
2023-02-19T22:29:34.641Z,5.80
2023-02-19T22:32:06.494Z,5.40
2023-02-19T22:34:40.280Z,4.63
2023-02-19T22:37:12.134Z,4.03
2023-02-19T22:39:44.852Z,5.30
2023-02-19T22:42:16.732Z,5.10
2023-02-19T22:44:48.898Z,4.07
2023-02-19T22:47:21.161Z,4.88
2023-02-19T22:49:52.964Z,5.33
2023-02-19T22:52:27.923Z,4.13
2023-02-19T22:55:02.691Z,4.50
2023-02-19T22:57:34.975Z,4.87
2023-02-19T23:00:07.627Z,4.60
2023-02-19T23:02:39.330Z,4.67
2023-02-19T23:05:11.098Z,5.23
2023-02-19T23:07:44.176Z,4.20
2023-02-19T23:10:16.105Z,4.30
2023-02-19T23:12:47.881Z,4.87
2023-02-19T23:15:19.735Z,4.67
2023-02-19T23:17:51.432Z,4.23
2023-02-19T23:20:23.165Z,4.73
2023-02-19T23:22:54.829Z,4.30
2023-02-19T23:25:26.856Z,5.50
2023-02-19T23:27:58.573Z,5.07
2023-02-19T23:30:30.456Z,4.10
2023-02-19T23:33:02.233Z,4.33
2023-02-19T23:35:33.981Z,5.37
2023-02-19T23:38:05.708Z,5.77
2023-02-19T23:40:37.499Z,4.07
2023-02-19T23:43:09.316Z,4.50
2023-02-19T23:45:41.013Z,4.60
2023-02-19T23:48:12.807Z,4.60
2023-02-19T23:50:44.779Z,4.40
2023-02-19T23:53:16.591Z,4.53
2023-02-19T23:55:48.537Z,5.93
2023-02-19T23:58:21.475Z,4.57
